sensor_id;sensor_type;location;lat;lon;timestamp;temperature;humidity
17994;DHT22;9122;48.406;9.984;2024-02-15T00:00:08;11.50;97.20
17994;DHT22;9122;48.406;9.984;2024-02-15T00:02:52;11.40;97.30
17994;DHT22;9122;48.406;9.984;2024-02-15T00:08:21;11.40;96.90
17994;DHT22;9122;48.406;9.984;2024-02-15T00:13:50;11.40;97.00
17994;DHT22;9122;48.406;9.984;2024-02-15T00:16:34;11.40;97.30
17994;DHT22;9122;48.406;9.984;2024-02-15T00:19:22;11.40;97.30
17994;DHT22;9122;48.406;9.984;2024-02-15T00:22:07;11.40;97.30
17994;DHT22;9122;48.406;9.984;2024-02-15T00:24:51;11.40;97.30
17994;DHT22;9122;48.406;9.984;2024-02-15T00:27:36;11.30;99.90
17994;DHT22;9122;48.406;9.984;2024-02-15T00:30:21;11.60;97.30
17994;DHT22;9122;48.406;9.984;2024-02-15T00:33:05;11.30;97.30
17994;DHT22;9122;48.406;9.984;2024-02-15T00:35:50;11.30;97.30
17994;DHT22;9122;48.406;9.984;2024-02-15T00:38:34;11.30;97.30
17994;DHT22;9122;48.406;9.984;2024-02-15T00:41:19;11.30;97.40
17994;DHT22;9122;48.406;9.984;2024-02-15T00:44:04;11.30;97.40
17994;DHT22;9122;48.406;9.984;2024-02-15T00:46:54;11.20;97.30
17994;DHT22;9122;48.406;9.984;2024-02-15T00:49:38;11.20;97.40
17994;DHT22;9122;48.406;9.984;2024-02-15T00:52:22;11.20;97.40
17994;DHT22;9122;48.406;9.984;2024-02-15T00:55:08;11.20;97.50
17994;DHT22;9122;48.406;9.984;2024-02-15T00:57:52;11.20;97.40
17994;DHT22;9122;48.406;9.984;2024-02-15T01:00:36;11.20;99.90
17994;DHT22;9122;48.406;9.984;2024-02-15T01:03:20;11.40;99.90
17994;DHT22;9122;48.406;9.984;2024-02-15T01:06:05;11.10;97.30
17994;DHT22;9122;48.406;9.984;2024-02-15T01:08:49;11.10;97.30
17994;DHT22;9122;48.406;9.984;2024-02-15T01:11:34;11.10;97.30
17994;DHT22;9122;48.406;9.984;2024-02-15T01:14:19;11.10;97.30
17994;DHT22;9122;48.406;9.984;2024-02-15T01:17:04;11.10;97.40
17994;DHT22;9122;48.406;9.984;2024-02-15T01:19:48;11.10;97.40
17994;DHT22;9122;48.406;9.984;2024-02-15T01:22:32;11.00;97.50
17994;DHT22;9122;48.406;9.984;2024-02-15T01:25:17;11.00;97.40
17994;DHT22;9122;48.406;9.984;2024-02-15T01:28:01;11.00;97.40
17994;DHT22;9122;48.406;9.984;2024-02-15T01:30:49;11.00;97.50
17994;DHT22;9122;48.406;9.984;2024-02-15T01:33:34;10.90;97.40
17994;DHT22;9122;48.406;9.984;2024-02-15T01:36:18;11.10;99.90
17994;DHT22;9122;48.406;9.984;2024-02-15T01:39:03;11.40;97.70
17994;DHT22;9122;48.406;9.984;2024-02-15T01:41:48;10.90;99.90
17994;DHT22;9122;48.406;9.984;2024-02-15T01:44:34;10.90;97.60
17994;DHT22;9122;48.406;9.984;2024-02-15T01:47:20;10.80;97.60
17994;DHT22;9122;48.406;9.984;2024-02-15T01:50:07;10.80;97.60
17994;DHT22;9122;48.406;9.984;2024-02-15T01:52:55;10.80;97.70
17994;DHT22;9122;48.406;9.984;2024-02-15T01:55:41;10.80;97.70
17994;DHT22;9122;48.406;9.984;2024-02-15T01:58:27;10.80;97.70
17994;DHT22;9122;48.406;9.984;2024-02-15T02:01:12;10.70;97.70
17994;DHT22;9122;48.406;9.984;2024-02-15T02:03:57;10.70;98.00
17994;DHT22;9122;48.406;9.984;2024-02-15T02:06:41;10.70;97.70
17994;DHT22;9122;48.406;9.984;2024-02-15T02:09:26;10.70;97.60
17994;DHT22;9122;48.406;9.984;2024-02-15T02:12:10;10.60;97.60
17994;DHT22;9122;48.406;9.984;2024-02-15T02:14:56;10.60;97.60
17994;DHT22;9122;48.406;9.984;2024-02-15T02:17:41;10.60;97.60
17994;DHT22;9122;48.406;9.984;2024-02-15T02:20:26;10.60;97.50
17994;DHT22;9122;48.406;9.984;2024-02-15T02:23:14;10.50;97.50
17994;DHT22;9122;48.406;9.984;2024-02-15T02:25:59;10.50;97.50
17994;DHT22;9122;48.406;9.984;2024-02-15T02:28:44;10.50;97.50
17994;DHT22;9122;48.406;9.984;2024-02-15T02:31:28;10.50;97.60
17994;DHT22;9122;48.406;9.984;2024-02-15T02:34:13;10.40;97.50
17994;DHT22;9122;48.406;9.984;2024-02-15T02:39:43;10.30;97.20
17994;DHT22;9122;48.406;9.984;2024-02-15T02:42:27;10.20;97.90
17994;DHT22;9122;48.406;9.984;2024-02-15T02:45:12;10.20;98.00
17994;DHT22;9122;48.406;9.984;2024-02-15T02:50:41;10.20;97.40
17994;DHT22;9122;48.406;9.984;2024-02-15T02:53:26;10.10;97.70
17994;DHT22;9122;48.406;9.984;2024-02-15T02:56:10;10.10;99.90
17994;DHT22;9122;48.406;9.984;2024-02-15T02:58:54;10.10;98.00
17994;DHT22;9122;48.406;9.984;2024-02-15T03:01:39;10.20;97.90
17994;DHT22;9122;48.406;9.984;2024-02-15T03:04:25;10.10;97.70
17994;DHT22;9122;48.406;9.984;2024-02-15T03:07:09;10.00;97.80
17994;DHT22;9122;48.406;9.984;2024-02-15T03:09:54;10.00;97.70
17994;DHT22;9122;48.406;9.984;2024-02-15T03:15:23;10.00;97.40
17994;DHT22;9122;48.406;9.984;2024-02-15T03:20:52;9.90;99.90
17994;DHT22;9122;48.406;9.984;2024-02-15T03:23:37;9.90;97.70
17994;DHT22;9122;48.406;9.984;2024-02-15T03:26:32;9.90;97.70
17994;DHT22;9122;48.406;9.984;2024-02-15T03:29:21;9.80;97.70
17994;DHT22;9122;48.406;9.984;2024-02-15T03:32:06;9.80;97.70
17994;DHT22;9122;48.406;9.984;2024-02-15T03:34:51;9.80;97.80
17994;DHT22;9122;48.406;9.984;2024-02-15T03:37:35;9.80;99.90
17994;DHT22;9122;48.406;9.984;2024-02-15T03:40:23;9.70;97.90
17994;DHT22;9122;48.406;9.984;2024-02-15T03:43:10;9.70;99.90
17994;DHT22;9122;48.406;9.984;2024-02-15T03:48:43;9.70;97.80
17994;DHT22;9122;48.406;9.984;2024-02-15T03:51:28;9.70;98.30
17994;DHT22;9122;48.406;9.984;2024-02-15T03:54:12;9.70;98.10
17994;DHT22;9122;48.406;9.984;2024-02-15T03:56:57;9.70;99.90
17994;DHT22;9122;48.406;9.984;2024-02-15T04:02:26;9.60;97.70
17994;DHT22;9122;48.406;9.984;2024-02-15T04:05:11;9.60;99.90
17994;DHT22;9122;48.406;9.984;2024-02-15T04:07:56;9.60;98.40
17994;DHT22;9122;48.406;9.984;2024-02-15T04:10:40;9.60;98.50
17994;DHT22;9122;48.406;9.984;2024-02-15T04:16:09;9.50;98.60
17994;DHT22;9122;48.406;9.984;2024-02-15T04:18:53;9.60;99.00
17994;DHT22;9122;48.406;9.984;2024-02-15T04:24:28;9.60;98.80
17994;DHT22;9122;48.406;9.984;2024-02-15T04:27:12;9.60;98.90
17994;DHT22;9122;48.406;9.984;2024-02-15T04:30:00;9.50;98.50
17994;DHT22;9122;48.406;9.984;2024-02-15T04:35:29;9.50;99.90
17994;DHT22;9122;48.406;9.984;2024-02-15T04:38:15;9.40;98.20
17994;DHT22;9122;48.406;9.984;2024-02-15T04:43:44;9.40;97.90
17994;DHT22;9122;48.406;9.984;2024-02-15T04:46:30;9.40;98.30
17994;DHT22;9122;48.406;9.984;2024-02-15T04:49:15;9.30;98.20
17994;DHT22;9122;48.406;9.984;2024-02-15T04:54:48;9.30;97.90
17994;DHT22;9122;48.406;9.984;2024-02-15T04:57:32;9.30;99.90
17994;DHT22;9122;48.406;9.984;2024-02-15T05:00:18;9.20;98.30
17994;DHT22;9122;48.406;9.984;2024-02-15T05:03:05;9.20;99.90
17994;DHT22;9122;48.406;9.984;2024-02-15T05:05:52;9.10;98.30
17994;DHT22;9122;48.406;9.984;2024-02-15T05:08:36;9.10;98.20
17994;DHT22;9122;48.406;9.984;2024-02-15T05:11:26;9.10;98.20
17994;DHT22;9122;48.406;9.984;2024-02-15T05:19:39;9.10;97.90
17994;DHT22;9122;48.406;9.984;2024-02-15T05:22:25;9.00;98.20
17994;DHT22;9122;48.406;9.984;2024-02-15T05:25:12;9.00;98.10
17994;DHT22;9122;48.406;9.984;2024-02-15T05:27:56;9.00;98.10
17994;DHT22;9122;48.406;9.984;2024-02-15T05:30:41;9.00;98.20
17994;DHT22;9122;48.406;9.984;2024-02-15T05:33:26;9.00;98.20
17994;DHT22;9122;48.406;9.984;2024-02-15T05:36:11;8.90;97.90
17994;DHT22;9122;48.406;9.984;2024-02-15T05:38:56;8.90;98.20
17994;DHT22;9122;48.406;9.984;2024-02-15T05:44:26;8.90;98.10
17994;DHT22;9122;48.406;9.984;2024-02-15T05:47:10;8.80;98.50
17994;DHT22;9122;48.406;9.984;2024-02-15T05:49:55;8.80;98.60
17994;DHT22;9122;48.406;9.984;2024-02-15T05:55:25;8.70;98.40
17994;DHT22;9122;48.406;9.984;2024-02-15T05:58:10;8.90;98.90
17994;DHT22;9122;48.406;9.984;2024-02-15T06:03:45;8.70;99.90
17994;DHT22;9122;48.406;9.984;2024-02-15T06:09:15;8.60;98.90
17994;DHT22;9122;48.406;9.984;2024-02-15T06:11:59;8.60;99.30
17994;DHT22;9122;48.406;9.984;2024-02-15T06:14:43;9.50;99.50
17994;DHT22;9122;48.406;9.984;2024-02-15T06:17:27;9.10;99.30
17994;DHT22;9122;48.406;9.984;2024-02-15T06:20:15;8.60;99.10
17994;DHT22;9122;48.406;9.984;2024-02-15T06:23:03;8.50;99.00
17994;DHT22;9122;48.406;9.984;2024-02-15T06:25:52;8.60;99.10
17994;DHT22;9122;48.406;9.984;2024-02-15T06:28:40;8.50;98.90
17994;DHT22;9122;48.406;9.984;2024-02-15T06:31:43;8.50;98.80
17994;DHT22;9122;48.406;9.984;2024-02-15T06:34:46;8.60;99.90
17994;DHT22;9122;48.406;9.984;2024-02-15T06:37:49;8.40;99.90
17994;DHT22;9122;48.406;9.984;2024-02-15T06:46:24;8.40;98.70
17994;DHT22;9122;48.406;9.984;2024-02-15T06:49:08;8.30;99.10
17994;DHT22;9122;48.406;9.984;2024-02-15T06:51:53;9.20;99.40
17994;DHT22;9122;48.406;9.984;2024-02-15T06:54:39;8.40;99.30
17994;DHT22;9122;48.406;9.984;2024-02-15T06:57:23;8.40;99.30
17994;DHT22;9122;48.406;9.984;2024-02-15T07:00:09;8.40;99.40
17994;DHT22;9122;48.406;9.984;2024-02-15T07:02:58;8.40;99.40
17994;DHT22;9122;48.406;9.984;2024-02-15T07:05:43;8.40;99.40
17994;DHT22;9122;48.406;9.984;2024-02-15T07:08:28;8.50;99.50
17994;DHT22;9122;48.406;9.984;2024-02-15T07:11:13;9.40;99.70
17994;DHT22;9122;48.406;9.984;2024-02-15T07:13:57;8.80;99.50
17994;DHT22;9122;48.406;9.984;2024-02-15T07:16:46;8.70;99.40
17994;DHT22;9122;48.406;9.984;2024-02-15T07:19:30;8.90;99.30
17994;DHT22;9122;48.406;9.984;2024-02-15T07:22:17;8.80;99.90
17994;DHT22;9122;48.406;9.984;2024-02-15T07:25:02;8.90;99.90
17994;DHT22;9122;48.406;9.984;2024-02-15T07:27:46;8.80;99.20
17994;DHT22;9122;48.406;9.984;2024-02-15T07:30:30;8.90;99.20
17994;DHT22;9122;48.406;9.984;2024-02-15T07:33:15;8.90;99.10
17994;DHT22;9122;48.406;9.984;2024-02-15T07:36:02;9.60;99.30
17994;DHT22;9122;48.406;9.984;2024-02-15T07:38:46;9.00;99.00
17994;DHT22;9122;48.406;9.984;2024-02-15T07:41:32;9.10;99.90
17994;DHT22;9122;48.406;9.984;2024-02-15T07:44:17;9.00;99.00
17994;DHT22;9122;48.406;9.984;2024-02-15T07:47:02;9.20;99.10
17994;DHT22;9122;48.406;9.984;2024-02-15T07:49:46;9.40;98.50
17994;DHT22;9122;48.406;9.984;2024-02-15T07:52:37;10.20;98.20
17994;DHT22;9122;48.406;9.984;2024-02-15T07:55:22;10.00;99.90
17994;DHT22;9122;48.406;9.984;2024-02-15T07:58:08;9.90;97.60
17994;DHT22;9122;48.406;9.984;2024-02-15T08:00:56;10.20;97.80
17994;DHT22;9122;48.406;9.984;2024-02-15T08:03:42;10.10;97.50
17994;DHT22;9122;48.406;9.984;2024-02-15T08:09:16;10.20;96.90
17994;DHT22;9122;48.406;9.984;2024-02-15T08:12:02;10.40;99.90
17994;DHT22;9122;48.406;9.984;2024-02-15T08:14:47;10.40;96.90
17994;DHT22;9122;48.406;9.984;2024-02-15T08:17:31;10.50;96.50
17994;DHT22;9122;48.406;9.984;2024-02-15T08:23:05;10.70;95.90
17994;DHT22;9122;48.406;9.984;2024-02-15T08:25:50;11.10;99.90
17994;DHT22;9122;48.406;9.984;2024-02-15T08:28:36;10.90;95.70
17994;DHT22;9122;48.406;9.984;2024-02-15T08:31:21;11.10;95.50
17994;DHT22;9122;48.406;9.984;2024-02-15T08:34:05;11.10;95.30
17994;DHT22;9122;48.406;9.984;2024-02-15T08:36:49;11.20;95.20
17994;DHT22;9122;48.406;9.984;2024-02-15T08:39:34;11.40;95.10
17994;DHT22;9122;48.406;9.984;2024-02-15T08:42:19;11.50;94.90
17994;DHT22;9122;48.406;9.984;2024-02-15T08:45:07;11.60;94.80
17994;DHT22;9122;48.406;9.984;2024-02-15T08:47:54;11.70;94.70
17994;DHT22;9122;48.406;9.984;2024-02-15T08:50:40;11.70;94.60
17994;DHT22;9122;48.406;9.984;2024-02-15T08:53:25;11.80;94.50
17994;DHT22;9122;48.406;9.984;2024-02-15T08:56:10;11.90;94.50
17994;DHT22;9122;48.406;9.984;2024-02-15T08:58:54;12.00;94.40
17994;DHT22;9122;48.406;9.984;2024-02-15T09:01:39;12.10;94.20
17994;DHT22;9122;48.406;9.984;2024-02-15T09:04:24;12.20;94.20
17994;DHT22;9122;48.406;9.984;2024-02-15T09:07:10;12.30;94.00
17994;DHT22;9122;48.406;9.984;2024-02-15T09:09:54;12.30;93.90
17994;DHT22;9122;48.406;9.984;2024-02-15T09:12:40;12.40;93.70
17994;DHT22;9122;48.406;9.984;2024-02-15T09:15:25;12.60;93.70
17994;DHT22;9122;48.406;9.984;2024-02-15T09:20:53;12.80;93.00
17994;DHT22;9122;48.406;9.984;2024-02-15T09:23:39;13.00;93.10
17994;DHT22;9122;48.406;9.984;2024-02-15T09:26:23;13.00;92.80
17994;DHT22;9122;48.406;9.984;2024-02-15T09:29:08;13.00;92.70
17994;DHT22;9122;48.406;9.984;2024-02-15T09:31:52;13.10;92.60
17994;DHT22;9122;48.406;9.984;2024-02-15T09:37:21;13.30;92.00
17994;DHT22;9122;48.406;9.984;2024-02-15T09:40:09;13.40;92.20
17994;DHT22;9122;48.406;9.984;2024-02-15T09:42:54;13.50;92.10
17994;DHT22;9122;48.406;9.984;2024-02-15T09:45:39;13.60;91.90
17994;DHT22;9122;48.406;9.984;2024-02-15T09:48:25;13.80;91.70
17994;DHT22;9122;48.406;9.984;2024-02-15T09:51:10;14.00;99.90
17994;DHT22;9122;48.406;9.984;2024-02-15T09:53:57;13.90;91.40
17994;DHT22;9122;48.406;9.984;2024-02-15T09:56:42;14.10;91.10
17994;DHT22;9122;48.406;9.984;2024-02-15T09:59:27;14.30;90.50
17994;DHT22;9122;48.406;9.984;2024-02-15T10:02:11;14.40;89.90
17994;DHT22;9122;48.406;9.984;2024-02-15T10:04:57;14.70;89.60
17994;DHT22;9122;48.406;9.984;2024-02-15T10:07:42;14.70;88.80
17994;DHT22;9122;48.406;9.984;2024-02-15T10:10:29;15.10;99.30
17994;DHT22;9122;48.406;9.984;2024-02-15T10:13:15;14.90;87.80
17994;DHT22;9122;48.406;9.984;2024-02-15T10:16:17;15.10;87.20
17994;DHT22;9122;48.406;9.984;2024-02-15T10:19:09;15.30;86.70
17994;DHT22;9122;48.406;9.984;2024-02-15T10:21:54;15.60;86.40
17994;DHT22;9122;48.406;9.984;2024-02-15T10:24:42;15.90;85.50
17994;DHT22;9122;48.406;9.984;2024-02-15T10:27:27;16.20;84.40
17994;DHT22;9122;48.406;9.984;2024-02-15T10:30:19;16.70;83.20
17994;DHT22;9122;48.406;9.984;2024-02-15T10:33:06;17.30;81.80
17994;DHT22;9122;48.406;9.984;2024-02-15T10:36:10;17.80;80.60
17994;DHT22;9122;48.406;9.984;2024-02-15T10:39:14;18.30;78.80
17994;DHT22;9122;48.406;9.984;2024-02-15T10:42:01;18.70;77.40
17994;DHT22;9122;48.406;9.984;2024-02-15T10:44:47;19.10;75.90
17994;DHT22;9122;48.406;9.984;2024-02-15T10:47:34;19.30;74.90
17994;DHT22;9122;48.406;9.984;2024-02-15T10:50:21;19.50;73.90
17994;DHT22;9122;48.406;9.984;2024-02-15T10:53:33;19.80;73.00
17994;DHT22;9122;48.406;9.984;2024-02-15T10:56:24;20.00;71.90
17994;DHT22;9122;48.406;9.984;2024-02-15T10:59:17;20.20;71.20
17994;DHT22;9122;48.406;9.984;2024-02-15T11:02:19;20.30;71.00
17994;DHT22;9122;48.406;9.984;2024-02-15T11:05:08;20.50;70.10
17994;DHT22;9122;48.406;9.984;2024-02-15T11:07:54;20.40;69.50
17994;DHT22;9122;48.406;9.984;2024-02-15T11:10:40;20.10;70.30
17994;DHT22;9122;48.406;9.984;2024-02-15T11:13:27;19.40;92.20
17994;DHT22;9122;48.406;9.984;2024-02-15T11:16:41;19.30;72.40
17994;DHT22;9122;48.406;9.984;2024-02-15T11:22:21;18.60;74.70
17994;DHT22;9122;48.406;9.984;2024-02-15T11:25:06;18.40;75.70
17994;DHT22;9122;48.406;9.984;2024-02-15T11:27:53;18.20;76.50
17994;DHT22;9122;48.406;9.984;2024-02-15T11:30:37;18.10;77.20
17994;DHT22;9122;48.406;9.984;2024-02-15T11:33:32;17.90;78.10
17994;DHT22;9122;48.406;9.984;2024-02-15T11:36:16;17.80;78.30
17994;DHT22;9122;48.406;9.984;2024-02-15T11:39:01;17.70;78.70
17994;DHT22;9122;48.406;9.984;2024-02-15T11:42:25;17.60;78.80
17994;DHT22;9122;48.406;9.984;2024-02-15T11:45:13;17.40;95.90
17994;DHT22;9122;48.406;9.984;2024-02-15T11:47:57;17.40;96.40
17994;DHT22;9122;48.406;9.984;2024-02-15T11:50:42;17.40;80.00
17994;DHT22;9122;48.406;9.984;2024-02-15T11:53:26;17.20;80.20
17994;DHT22;9122;48.406;9.984;2024-02-15T11:56:10;17.20;80.70
17994;DHT22;9122;48.406;9.984;2024-02-15T11:59:04;17.20;81.50
17994;DHT22;9122;48.406;9.984;2024-02-15T12:01:50;17.20;81.90
17994;DHT22;9122;48.406;9.984;2024-02-15T12:04:54;17.20;96.70
17994;DHT22;9122;48.406;9.984;2024-02-15T12:07:58;17.20;81.70
17994;DHT22;9122;48.406;9.984;2024-02-15T12:11:01;17.20;82.20
17994;DHT22;9122;48.406;9.984;2024-02-15T12:14:04;17.20;82.80
17994;DHT22;9122;48.406;9.984;2024-02-15T12:17:09;17.20;82.20
17994;DHT22;9122;48.406;9.984;2024-02-15T12:20:12;17.20;96.60
17994;DHT22;9122;48.406;9.984;2024-02-15T12:22:58;17.20;81.60
17994;DHT22;9122;48.406;9.984;2024-02-15T12:25:51;17.30;96.80
17994;DHT22;9122;48.406;9.984;2024-02-15T12:28:36;17.10;81.60
17994;DHT22;9122;48.406;9.984;2024-02-15T12:31:21;17.20;81.90
17994;DHT22;9122;48.406;9.984;2024-02-15T12:34:05;17.20;81.90
17994;DHT22;9122;48.406;9.984;2024-02-15T12:37:06;17.30;81.90
17994;DHT22;9122;48.406;9.984;2024-02-15T12:39:52;17.20;82.50
17994;DHT22;9122;48.406;9.984;2024-02-15T12:42:40;17.20;97.20
17994;DHT22;9122;48.406;9.984;2024-02-15T12:45:26;17.20;82.60
17994;DHT22;9122;48.406;9.984;2024-02-15T12:48:13;17.10;82.60
17994;DHT22;9122;48.406;9.984;2024-02-15T12:50:59;17.10;82.60
17994;DHT22;9122;48.406;9.984;2024-02-15T12:54:08;17.10;82.40
17994;DHT22;9122;48.406;9.984;2024-02-15T12:57:07;17.10;82.30
17994;DHT22;9122;48.406;9.984;2024-02-15T12:59:53;17.00;82.60
17994;DHT22;9122;48.406;9.984;2024-02-15T13:02:37;17.00;83.00
17994;DHT22;9122;48.406;9.984;2024-02-15T13:05:25;17.00;82.90
17994;DHT22;9122;48.406;9.984;2024-02-15T13:08:10;17.00;83.00
17994;DHT22;9122;48.406;9.984;2024-02-15T13:10:57;17.00;83.10
17994;DHT22;9122;48.406;9.984;2024-02-15T13:13:41;17.00;83.00
17994;DHT22;9122;48.406;9.984;2024-02-15T13:16:26;17.00;82.70
17994;DHT22;9122;48.406;9.984;2024-02-15T13:19:12;17.00;82.30
17994;DHT22;9122;48.406;9.984;2024-02-15T13:21:57;17.00;82.30
17994;DHT22;9122;48.406;9.984;2024-02-15T13:24:42;17.00;82.60
17994;DHT22;9122;48.406;9.984;2024-02-15T13:27:26;17.00;82.30
17994;DHT22;9122;48.406;9.984;2024-02-15T13:32:57;17.00;80.60
17994;DHT22;9122;48.406;9.984;2024-02-15T13:35:41;17.00;81.00
17994;DHT22;9122;48.406;9.984;2024-02-15T13:38:26;17.00;80.90
17994;DHT22;9122;48.406;9.984;2024-02-15T13:41:12;16.90;96.80
17994;DHT22;9122;48.406;9.984;2024-02-15T13:43:57;16.90;81.70
17994;DHT22;9122;48.406;9.984;2024-02-15T13:46:41;16.90;82.20
17994;DHT22;9122;48.406;9.984;2024-02-15T13:49:26;16.80;82.30
17994;DHT22;9122;48.406;9.984;2024-02-15T13:52:10;16.80;82.10
17994;DHT22;9122;48.406;9.984;2024-02-15T13:54:55;16.80;97.20
17994;DHT22;9122;48.406;9.984;2024-02-15T13:57:41;16.80;82.90
17994;DHT22;9122;48.406;9.984;2024-02-15T14:00:26;16.80;83.60
17994;DHT22;9122;48.406;9.984;2024-02-15T14:03:14;16.80;84.10
17994;DHT22;9122;48.406;9.984;2024-02-15T14:06:01;16.70;84.90
17994;DHT22;9122;48.406;9.984;2024-02-15T14:08:46;16.80;98.20
17994;DHT22;9122;48.406;9.984;2024-02-15T14:11:31;16.70;85.00
17994;DHT22;9122;48.406;9.984;2024-02-15T14:14:15;16.60;84.40
17994;DHT22;9122;48.406;9.984;2024-02-15T14:17:01;16.60;85.10
17994;DHT22;9122;48.406;9.984;2024-02-15T14:19:46;16.60;85.00
17994;DHT22;9122;48.406;9.984;2024-02-15T14:22:31;16.60;85.00
17994;DHT22;9122;48.406;9.984;2024-02-15T14:25:16;16.50;85.10
17994;DHT22;9122;48.406;9.984;2024-02-15T14:28:00;16.50;85.20
17994;DHT22;9122;48.406;9.984;2024-02-15T14:30:45;16.50;85.30
17994;DHT22;9122;48.406;9.984;2024-02-15T14:36:34;16.50;85.00
17994;DHT22;9122;48.406;9.984;2024-02-15T14:39:20;16.50;85.70
17994;DHT22;9122;48.406;9.984;2024-02-15T14:42:06;16.50;86.00
17994;DHT22;9122;48.406;9.984;2024-02-15T14:44:50;16.40;86.10
17994;DHT22;9122;48.406;9.984;2024-02-15T14:47:35;16.40;86.00
17994;DHT22;9122;48.406;9.984;2024-02-15T14:50:20;16.40;86.10
17994;DHT22;9122;48.406;9.984;2024-02-15T14:53:05;16.40;86.10
17994;DHT22;9122;48.406;9.984;2024-02-15T14:55:51;16.40;86.40
17994;DHT22;9122;48.406;9.984;2024-02-15T15:01:22;16.40;85.40
17994;DHT22;9122;48.406;9.984;2024-02-15T15:04:06;16.30;86.30
17994;DHT22;9122;48.406;9.984;2024-02-15T15:06:52;16.30;86.30
17994;DHT22;9122;48.406;9.984;2024-02-15T15:09:55;16.30;86.30
17994;DHT22;9122;48.406;9.984;2024-02-15T15:13:02;16.30;86.20
17994;DHT22;9122;48.406;9.984;2024-02-15T15:15:47;16.20;99.00
17994;DHT22;9122;48.406;9.984;2024-02-15T15:18:32;16.30;86.30
17994;DHT22;9122;48.406;9.984;2024-02-15T15:21:17;16.30;86.30
17994;DHT22;9122;48.406;9.984;2024-02-15T15:24:01;16.20;86.60
17994;DHT22;9122;48.406;9.984;2024-02-15T15:26:46;16.20;86.40
17994;DHT22;9122;48.406;9.984;2024-02-15T15:29:30;16.20;86.60
17994;DHT22;9122;48.406;9.984;2024-02-15T15:32:15;16.20;86.60
17994;DHT22;9122;48.406;9.984;2024-02-15T15:34:59;16.30;99.40
17994;DHT22;9122;48.406;9.984;2024-02-15T15:37:44;16.20;99.50
17994;DHT22;9122;48.406;9.984;2024-02-15T15:40:30;16.10;99.50
17994;DHT22;9122;48.406;9.984;2024-02-15T15:43:14;16.10;87.80
17994;DHT22;9122;48.406;9.984;2024-02-15T15:45:59;16.10;88.10
17994;DHT22;9122;48.406;9.984;2024-02-15T15:48:44;16.10;88.30
17994;DHT22;9122;48.406;9.984;2024-02-15T15:51:29;16.10;89.20
17994;DHT22;9122;48.406;9.984;2024-02-15T15:56:58;16.10;88.10
17994;DHT22;9122;48.406;9.984;2024-02-15T15:59:43;16.00;88.90
17994;DHT22;9122;48.406;9.984;2024-02-15T16:02:28;16.00;88.90
17994;DHT22;9122;48.406;9.984;2024-02-15T16:05:14;16.00;89.10
17994;DHT22;9122;48.406;9.984;2024-02-15T16:07:59;16.00;89.30
17994;DHT22;9122;48.406;9.984;2024-02-15T16:10:44;16.00;89.40
17994;DHT22;9122;48.406;9.984;2024-02-15T16:13:29;16.00;89.60
17994;DHT22;9122;48.406;9.984;2024-02-15T16:16:14;16.00;89.70
17994;DHT22;9122;48.406;9.984;2024-02-15T16:18:58;15.80;99.90
17994;DHT22;9122;48.406;9.984;2024-02-15T16:21:44;15.90;90.00
17994;DHT22;9122;48.406;9.984;2024-02-15T16:24:29;15.90;90.10
17994;DHT22;9122;48.406;9.984;2024-02-15T16:27:13;15.90;90.10
17994;DHT22;9122;48.406;9.984;2024-02-15T16:29:59;15.90;90.10
17994;DHT22;9122;48.406;9.984;2024-02-15T16:32:44;15.90;99.90
17994;DHT22;9122;48.406;9.984;2024-02-15T16:35:28;15.80;90.10
17994;DHT22;9122;48.406;9.984;2024-02-15T16:38:12;15.80;90.20
17994;DHT22;9122;48.406;9.984;2024-02-15T16:40:56;15.80;90.20
17994;DHT22;9122;48.406;9.984;2024-02-15T16:43:40;15.80;90.20
17994;DHT22;9122;48.406;9.984;2024-02-15T16:46:24;15.80;90.30
17994;DHT22;9122;48.406;9.984;2024-02-15T16:49:09;15.80;90.40
17994;DHT22;9122;48.406;9.984;2024-02-15T16:51:54;15.70;90.40
17994;DHT22;9122;48.406;9.984;2024-02-15T16:54:41;15.70;90.30
17994;DHT22;9122;48.406;9.984;2024-02-15T16:57:26;15.70;90.40
17994;DHT22;9122;48.406;9.984;2024-02-15T17:00:10;15.60;90.40
17994;DHT22;9122;48.406;9.984;2024-02-15T17:02:56;15.60;90.40
17994;DHT22;9122;48.406;9.984;2024-02-15T17:05:41;15.60;90.40
17994;DHT22;9122;48.406;9.984;2024-02-15T17:08:26;15.50;99.90
17994;DHT22;9122;48.406;9.984;2024-02-15T17:11:10;15.50;90.40
17994;DHT22;9122;48.406;9.984;2024-02-15T17:13:55;15.50;90.60
17994;DHT22;9122;48.406;9.984;2024-02-15T17:16:41;15.40;90.60
17994;DHT22;9122;48.406;9.984;2024-02-15T17:19:29;15.40;90.60
17994;DHT22;9122;48.406;9.984;2024-02-15T17:22:14;15.40;90.60
17994;DHT22;9122;48.406;9.984;2024-02-15T17:24:58;15.40;90.80
17994;DHT22;9122;48.406;9.984;2024-02-15T17:27:44;15.40;90.70
17994;DHT22;9122;48.406;9.984;2024-02-15T17:30:28;15.30;90.80
17994;DHT22;9122;48.406;9.984;2024-02-15T17:33:12;15.30;90.90
17994;DHT22;9122;48.406;9.984;2024-02-15T17:35:57;15.20;99.90
17994;DHT22;9122;48.406;9.984;2024-02-15T17:38:42;15.20;91.00
17994;DHT22;9122;48.406;9.984;2024-02-15T17:44:13;15.20;90.80
17994;DHT22;9122;48.406;9.984;2024-02-15T17:46:57;15.10;91.20
17994;DHT22;9122;48.406;9.984;2024-02-15T17:49:44;15.10;91.30
17994;DHT22;9122;48.406;9.984;2024-02-15T17:52:28;15.00;99.90
17994;DHT22;9122;48.406;9.984;2024-02-15T17:55:13;15.00;99.90
17994;DHT22;9122;48.406;9.984;2024-02-15T18:00:45;15.10;95.00
17994;DHT22;9122;48.406;9.984;2024-02-15T18:03:30;14.90;91.40
17994;DHT22;9122;48.406;9.984;2024-02-15T18:14:03;14.80;91.50
17994;DHT22;9122;48.406;9.984;2024-02-15T18:16:48;14.80;91.60
17994;DHT22;9122;48.406;9.984;2024-02-15T18:19:34;14.80;91.60
17994;DHT22;9122;48.406;9.984;2024-02-15T18:22:18;14.80;91.60
17994;DHT22;9122;48.406;9.984;2024-02-15T18:25:03;14.70;99.90
17994;DHT22;9122;48.406;9.984;2024-02-15T18:27:48;14.70;91.80
17994;DHT22;9122;48.406;9.984;2024-02-15T18:30:33;14.70;91.90
17994;DHT22;9122;48.406;9.984;2024-02-15T18:33:26;14.70;91.90
17994;DHT22;9122;48.406;9.984;2024-02-15T18:36:13;14.70;91.80
17994;DHT22;9122;48.406;9.984;2024-02-15T18:39:00;14.80;99.90
17994;DHT22;9122;48.406;9.984;2024-02-15T18:41:47;14.70;91.90
17994;DHT22;9122;48.406;9.984;2024-02-15T18:44:35;14.60;91.90
17994;DHT22;9122;48.406;9.984;2024-02-15T18:47:19;14.70;99.90
17994;DHT22;9122;48.406;9.984;2024-02-15T18:50:06;14.60;91.90
17994;DHT22;9122;48.406;9.984;2024-02-15T18:55:42;14.60;91.60
17994;DHT22;9122;48.406;9.984;2024-02-15T18:58:26;14.50;99.90
17994;DHT22;9122;48.406;9.984;2024-02-15T19:01:21;14.50;91.90
17994;DHT22;9122;48.406;9.984;2024-02-15T19:06:51;14.50;91.50
17994;DHT22;9122;48.406;9.984;2024-02-15T19:09:36;14.40;92.00
17994;DHT22;9122;48.406;9.984;2024-02-15T19:20:18;14.20;91.70
17994;DHT22;9122;48.406;9.984;2024-02-15T19:31:33;14.00;91.60
17994;DHT22;9122;48.406;9.984;2024-02-15T19:34:22;14.00;91.70
17994;DHT22;9122;48.406;9.984;2024-02-15T19:40:11;13.80;91.70
17994;DHT22;9122;48.406;9.984;2024-02-15T19:43:13;13.80;92.60
17994;DHT22;9122;48.406;9.984;2024-02-15T19:54:39;13.60;99.90
17994;DHT22;9122;48.406;9.984;2024-02-15T20:00:09;13.50;92.80
17994;DHT22;9122;48.406;9.984;2024-02-15T20:05:54;13.50;92.10
17994;DHT22;9122;48.406;9.984;2024-02-15T20:11:28;13.30;92.00